createdAt,value
2023-03-03T00:00:23.850Z,5.285714
2023-03-03T00:05:26.186Z,4.000000
2023-03-03T00:10:28.069Z,5.600000
2023-03-03T00:15:29.957Z,7.000000
2023-03-03T00:20:31.906Z,6.400000
2023-03-03T00:25:33.884Z,6.000000
2023-03-03T00:30:35.865Z,5.400000
2023-03-03T00:35:17.607Z,5.000000
2023-03-03T00:40:19.705Z,7.400000
2023-03-03T00:45:21.773Z,9.000000
2023-03-03T00:50:24.464Z,6.428571
2023-03-03T00:55:26.777Z,5.000000
2023-03-03T01:00:29.155Z,6.066667
2023-03-03T01:05:31.622Z,7.000000
2023-03-03T01:10:33.672Z,6.400000
2023-03-03T01:15:35.953Z,6.000000
2023-03-03T01:20:17.966Z,6.000000
2023-03-03T01:25:20.523Z,6.000000
2023-03-03T01:30:22.902Z,4.857143
2023-03-03T01:35:25.333Z,4.000000
2023-03-03T01:40:27.730Z,5.600000
2023-03-03T01:45:30.238Z,7.000000
2023-03-03T01:50:32.804Z,6.400000
2023-03-03T01:55:35.572Z,6.000000
2023-03-03T02:00:17.826Z,8.400000
2023-03-03T02:05:20.557Z,10.000000
2023-03-03T02:10:23.101Z,7.142857
2023-03-03T02:15:25.313Z,5.000000
2023-03-03T02:20:27.723Z,6.600000
2023-03-03T02:25:30.180Z,8.000000
2023-03-03T02:30:32.727Z,7.400000
2023-03-03T02:35:35.302Z,7.000000
2023-03-03T02:40:17.395Z,8.200000
2023-03-03T02:45:19.868Z,9.000000
2023-03-03T02:50:22.828Z,9.571429
2023-03-03T02:55:25.349Z,10.000000
2023-03-03T03:00:27.380Z,11.066667
2023-03-03T03:05:29.929Z,12.000000
2023-03-03T03:10:32.204Z,8.400000
2023-03-03T03:15:34.664Z,6.000000
2023-03-03T03:20:16.861Z,8.400000
2023-03-03T03:25:19.278Z,10.000000
2023-03-03T03:30:21.857Z,16.000000
2023-03-03T03:35:24.105Z,20.000000
2023-03-03T03:40:26.307Z,15.200000
2023-03-03T03:45:28.640Z,11.000000
2023-03-03T03:50:31.071Z,11.000000
2023-03-03T03:55:33.670Z,11.000000
2023-03-03T04:00:35.804Z,9.800000
2023-03-03T04:05:18.122Z,9.000000
2023-03-03T04:10:20.490Z,7.200000
2023-03-03T04:15:22.866Z,6.000000
2023-03-03T04:20:25.067Z,5.466667
2023-03-03T04:25:27.231Z,5.000000
2023-03-03T04:30:29.205Z,7.666667
2023-03-03T04:35:31.667Z,10.000000
2023-03-03T04:40:33.821Z,10.000000
2023-03-03T04:45:35.950Z,10.000000
2023-03-03T04:50:17.983Z,10.000000
2023-03-03T04:55:20.112Z,10.000000
2023-03-03T05:00:22.168Z,7.142857
2023-03-03T05:05:24.251Z,5.000000
2023-03-03T05:10:26.378Z,5.533333
2023-03-03T05:15:28.550Z,6.000000
2023-03-03T05:20:30.616Z,19.333333
2023-03-03T05:25:32.532Z,31.000000
2023-03-03T05:30:34.749Z,28.600000
2023-03-03T05:35:16.664Z,27.000000
2023-03-03T05:40:18.899Z,15.000000
2023-03-03T05:45:20.867Z,7.000000
2023-03-03T05:50:22.879Z,8.142857
2023-03-03T05:55:24.854Z,9.000000
2023-03-03T06:00:27.107Z,9.000000
2023-03-03T06:05:29.168Z,9.000000
2023-03-03T06:10:31.189Z,9.000000
2023-03-03T06:15:33.787Z,9.000000
2023-03-03T06:20:35.442Z,13.800000
2023-03-03T06:25:17.304Z,17.000000
2023-03-03T06:30:19.514Z,14.000000
2023-03-03T06:35:21.513Z,12.000000
2023-03-03T06:40:23.932Z,41.142857
2023-03-03T06:45:26.183Z,63.000000
2023-03-03T06:50:28.387Z,32.600000
2023-03-03T06:55:30.729Z,6.000000
2023-03-03T07:00:32.726Z,7.200000
2023-03-03T07:05:47.212Z,8.000000
2023-03-03T07:10:17.003Z,15.800000
2023-03-03T07:15:19.096Z,21.000000
2023-03-03T07:20:21.842Z,19.200000
2023-03-03T07:25:24.678Z,18.000000
2023-03-03T07:30:27.320Z,13.733333
2023-03-03T07:35:29.932Z,10.000000
2023-03-03T07:40:32.925Z,9.400000
2023-03-03T07:45:35.384Z,9.000000
2023-03-03T07:50:17.450Z,8.400000
2023-03-03T07:55:19.724Z,8.000000
2023-03-03T08:00:21.818Z,9.200000
2023-03-03T08:05:24.452Z,10.000000
2023-03-03T08:10:26.704Z,9.466667
2023-03-03T08:15:28.632Z,9.000000
2023-03-03T08:20:30.698Z,9.533333
2023-03-03T08:25:32.645Z,10.000000
2023-03-03T08:30:34.629Z,10.000000
2023-03-03T08:35:16.598Z,10.000000
2023-03-03T08:40:18.637Z,8.200000
2023-03-03T08:45:20.558Z,7.000000
2023-03-03T08:50:23.385Z,7.571429
2023-03-03T08:55:25.418Z,8.000000
2023-03-03T09:00:27.506Z,6.400000
2023-03-03T09:05:30.181Z,5.000000
2023-03-03T09:10:32.338Z,5.600000
2023-03-03T09:15:34.153Z,6.000000
2023-03-03T09:20:16.146Z,6.000000
2023-03-03T09:25:18.449Z,6.000000
2023-03-03T09:30:20.047Z,6.000000
2023-03-03T09:35:22.345Z,6.000000
2023-03-03T09:40:24.218Z,7.066667
2023-03-03T09:45:26.143Z,8.000000
2023-03-03T09:50:28.288Z,7.466667
2023-03-03T09:55:30.166Z,7.000000
2023-03-03T10:00:32.160Z,7.000000
2023-03-03T10:05:19.666Z,7.000000
2023-03-03T10:10:22.370Z,7.571429
2023-03-03T10:15:24.173Z,8.000000
2023-03-03T10:20:28.148Z,7.466667
2023-03-03T10:25:28.641Z,7.000000
2023-03-03T10:30:39.967Z,6.466667
2023-03-03T10:35:32.463Z,6.000000
2023-03-03T10:40:34.497Z,7.200000
2023-03-03T10:45:16.284Z,8.000000
2023-03-03T10:50:18.350Z,7.400000
2023-03-03T10:55:20.350Z,7.000000
2023-03-03T11:00:22.470Z,8.142857
2023-03-03T11:05:24.587Z,9.000000
2023-03-03T11:10:26.451Z,8.466667
2023-03-03T11:15:28.581Z,8.000000
2023-03-03T11:20:30.610Z,8.533333
2023-03-03T11:25:32.555Z,9.000000
2023-03-03T11:30:34.624Z,9.000000
2023-03-03T11:35:16.315Z,9.000000
2023-03-03T11:40:18.340Z,9.000000
2023-03-03T11:45:20.083Z,9.000000
2023-03-03T11:50:22.624Z,9.000000
2023-03-03T11:55:24.404Z,9.000000
2023-03-03T12:00:26.266Z,10.066667
2023-03-03T12:05:28.564Z,11.000000
2023-03-03T12:10:30.242Z,9.933333
2023-03-03T12:15:32.121Z,9.000000
2023-03-03T12:20:34.291Z,9.600000
2023-03-03T12:25:16.094Z,10.000000
2023-03-03T12:30:18.317Z,10.600000
2023-03-03T12:35:20.426Z,11.000000
2023-03-03T12:40:22.749Z,11.000000
2023-03-03T12:45:24.634Z,11.000000
2023-03-03T12:50:26.497Z,12.600000
2023-03-03T12:55:28.654Z,14.000000
2023-03-03T13:00:31.163Z,14.000000
2023-03-03T13:05:32.832Z,14.000000
2023-03-03T13:10:35.181Z,12.200000
2023-03-03T13:15:18.216Z,11.000000
2023-03-03T13:20:19.326Z,12.200000
2023-03-03T13:25:21.232Z,13.000000
2023-03-03T13:30:23.412Z,14.142857
2023-03-03T13:35:25.446Z,15.000000
2023-03-03T13:40:27.308Z,15.000000
2023-03-03T13:45:29.527Z,15.000000
2023-03-03T13:50:31.657Z,14.400000
2023-03-03T13:55:35.011Z,14.000000
2023-03-03T14:00:38.464Z,13.400000
2023-03-03T14:05:18.166Z,13.000000
2023-03-03T14:10:20.066Z,15.400000
2023-03-03T14:15:22.421Z,17.000000
2023-03-03T14:20:24.620Z,16.466667
2023-03-03T14:25:27.382Z,16.000000
2023-03-03T14:30:29.450Z,14.400000
2023-03-03T14:35:31.388Z,13.000000
2023-03-03T14:40:33.438Z,13.600000
2023-03-03T14:45:35.270Z,14.000000
2023-03-03T14:50:17.299Z,15.800000
2023-03-03T14:55:19.658Z,17.000000
2023-03-03T15:00:21.972Z,15.800000
2023-03-03T15:05:23.827Z,15.000000
2023-03-03T15:10:26.482Z,15.000000
2023-03-03T15:15:28.242Z,15.000000
2023-03-03T15:20:30.207Z,15.533333
2023-03-03T15:25:42.804Z,16.000000
2023-03-03T15:30:34.782Z,16.600000
2023-03-03T15:35:16.226Z,17.000000
2023-03-03T15:40:18.658Z,15.800000
2023-03-03T15:45:20.888Z,15.000000
2023-03-03T15:50:22.947Z,16.142857
2023-03-03T15:55:25.212Z,17.000000
2023-03-03T16:00:27.268Z,17.533333
2023-03-03T16:05:29.629Z,18.000000
2023-03-03T16:10:31.311Z,16.933333
2023-03-03T16:15:33.300Z,16.000000
2023-03-03T16:20:35.326Z,19.600000
2023-03-03T16:25:16.972Z,22.000000
2023-03-03T16:30:19.110Z,18.400000
2023-03-03T16:35:21.377Z,16.000000
2023-03-03T16:40:23.333Z,16.000000
2023-03-03T16:45:25.597Z,16.000000
2023-03-03T16:50:27.534Z,16.000000
2023-03-03T16:55:30.450Z,16.000000
2023-03-03T17:00:32.460Z,16.000000
2023-03-03T17:05:34.396Z,16.000000
2023-03-03T17:10:16.145Z,15.400000
2023-03-03T17:15:18.381Z,15.000000
2023-03-03T17:20:20.463Z,13.800000
2023-03-03T17:25:23.484Z,13.000000
2023-03-03T17:30:24.502Z,11.933333
2023-03-03T17:35:27.069Z,11.000000
2023-03-03T17:40:29.055Z,11.533333
2023-03-03T17:45:31.241Z,12.000000
2023-03-03T17:50:33.289Z,11.400000
2023-03-03T17:55:35.164Z,11.000000
2023-03-03T18:00:19.212Z,11.000000
2023-03-03T18:05:20.537Z,11.000000
2023-03-03T18:10:21.525Z,8.000000
2023-03-03T18:15:23.548Z,6.000000
2023-03-03T18:20:25.563Z,5.466667
2023-03-03T18:25:27.768Z,5.000000
2023-03-03T18:30:29.832Z,6.066667
2023-03-03T18:35:33.360Z,7.000000
2023-03-03T18:40:33.897Z,7.000000
2023-03-03T18:45:36.054Z,7.000000
2023-03-03T18:50:17.804Z,7.000000
2023-03-03T18:55:19.879Z,7.000000
2023-03-03T19:00:21.688Z,7.000000
2023-03-03T19:05:23.932Z,7.000000
2023-03-03T19:10:26.149Z,7.533333
2023-03-03T19:15:28.102Z,8.000000
2023-03-03T19:20:30.900Z,8.533333
2023-03-03T19:25:32.319Z,9.000000
2023-03-03T19:30:34.136Z,8.400000
2023-03-03T19:35:15.970Z,8.000000
2023-03-03T19:40:18.281Z,7.400000
2023-03-03T19:45:20.496Z,7.000000
2023-03-03T19:50:22.720Z,7.571429
2023-03-03T19:55:24.882Z,8.000000
2023-03-03T20:00:26.851Z,6.400000
2023-03-03T20:05:28.936Z,5.000000
2023-03-03T20:10:30.823Z,7.666667
2023-03-03T20:15:32.896Z,10.000000
2023-03-03T20:20:34.723Z,8.800000
2023-03-03T20:25:16.750Z,8.000000
2023-03-03T20:30:18.790Z,9.200000
2023-03-03T20:35:20.945Z,10.000000
2023-03-03T20:40:22.832Z,10.000000
2023-03-03T20:45:24.737Z,10.000000
2023-03-03T20:50:26.756Z,10.000000
2023-03-03T20:55:28.874Z,10.000000
2023-03-03T21:00:30.857Z,10.000000
2023-03-03T21:05:32.842Z,10.000000
2023-03-03T21:10:34.982Z,9.400000
2023-03-03T21:15:16.423Z,9.000000
2023-03-03T21:20:18.623Z,7.800000
2023-03-03T21:25:20.600Z,7.000000
2023-03-03T21:30:22.264Z,7.000000
2023-03-03T21:35:25.625Z,7.000000
2023-03-03T21:40:26.623Z,7.533333
2023-03-03T21:45:28.355Z,8.000000
2023-03-03T21:50:30.569Z,8.000000
2023-03-03T21:55:32.925Z,8.000000
2023-03-03T22:00:34.757Z,6.200000
2023-03-03T22:05:16.859Z,5.000000
2023-03-03T22:10:18.913Z,6.800000
2023-03-03T22:15:21.137Z,8.000000
2023-03-03T22:20:23.315Z,7.428571
2023-03-03T22:25:25.224Z,7.000000
2023-03-03T22:30:27.092Z,7.000000
2023-03-03T22:35:29.079Z,7.000000
2023-03-03T22:40:31.065Z,7.000000
2023-03-03T22:45:32.824Z,7.000000
2023-03-03T22:50:34.737Z,7.000000
2023-03-03T22:55:16.500Z,7.000000
2023-03-03T23:00:18.643Z,7.600000
2023-03-03T23:05:21.060Z,8.000000
2023-03-03T23:10:22.926Z,8.571429
2023-03-03T23:15:25.232Z,9.000000
2023-03-03T23:20:27.098Z,9.000000
2023-03-03T23:25:29.111Z,9.000000
2023-03-03T23:30:31.191Z,7.933333
2023-03-03T23:35:33.404Z,7.000000
2023-03-03T23:40:35.377Z,7.000000
2023-03-03T23:45:16.931Z,7.000000
2023-03-03T23:50:18.767Z,7.000000
2023-03-03T23:55:20.786Z,7.000000
